sensor_id;sensor_type;location;lat;lon;timestamp;P1;durP1;ratioP1;P2;durP2;ratioP2
16600;SDS011;34891;48.164;11.572;2023-02-12T00:04:23;31.98;;;11.30;;
16600;SDS011;34891;48.164;11.572;2023-02-12T00:09:25;32.60;;;12.48;;
16600;SDS011;34891;48.164;11.572;2023-02-12T00:14:28;30.35;;;11.57;;
16600;SDS011;34891;48.164;11.572;2023-02-12T00:19:32;30.98;;;12.23;;
16600;SDS011;34891;48.164;11.572;2023-02-12T00:24:35;29.80;;;10.82;;
16600;SDS011;34891;48.164;11.572;2023-02-12T00:29:37;30.20;;;12.07;;
16600;SDS011;34891;48.164;11.572;2023-02-12T00:34:41;30.27;;;11.77;;
16600;SDS011;34891;48.164;11.572;2023-02-12T00:39:44;32.15;;;11.95;;
16600;SDS011;34891;48.164;11.572;2023-02-12T00:44:47;32.72;;;11.98;;
16600;SDS011;34891;48.164;11.572;2023-02-12T00:49:50;30.55;;;11.35;;
16600;SDS011;34891;48.164;11.572;2023-02-12T00:54:53;33.90;;;13.02;;
16600;SDS011;34891;48.164;11.572;2023-02-12T00:59:56;31.05;;;12.85;;
16600;SDS011;34891;48.164;11.572;2023-02-12T01:05:00;26.52;;;11.93;;
16600;SDS011;34891;48.164;11.572;2023-02-12T01:10:03;28.67;;;11.70;;
16600;SDS011;34891;48.164;11.572;2023-02-12T01:15:06;32.27;;;10.40;;
16600;SDS011;34891;48.164;11.572;2023-02-12T01:20:12;34.88;;;11.77;;
16600;SDS011;34891;48.164;11.572;2023-02-12T01:25:15;29.10;;;12.23;;
16600;SDS011;34891;48.164;11.572;2023-02-12T01:30:21;32.53;;;12.40;;
16600;SDS011;34891;48.164;11.572;2023-02-12T01:35:25;32.03;;;11.35;;
16600;SDS011;34891;48.164;11.572;2023-02-12T01:40:28;32.47;;;11.55;;
16600;SDS011;34891;48.164;11.572;2023-02-12T01:45:41;32.67;;;12.73;;
16600;SDS011;34891;48.164;11.572;2023-02-12T01:50:47;26.50;;;12.15;;
16600;SDS011;34891;48.164;11.572;2023-02-12T01:55:51;30.33;;;12.70;;
16600;SDS011;34891;48.164;11.572;2023-02-12T02:00:55;31.70;;;12.27;;
16600;SDS011;34891;48.164;11.572;2023-02-12T02:05:59;34.88;;;13.75;;
16600;SDS011;34891;48.164;11.572;2023-02-12T02:11:03;34.83;;;12.98;;
16600;SDS011;34891;48.164;11.572;2023-02-12T02:16:26;35.08;;;13.38;;
16600;SDS011;34891;48.164;11.572;2023-02-12T02:26:55;35.72;;;12.50;;
16600;SDS011;34891;48.164;11.572;2023-02-12T02:32:03;30.15;;;11.57;;
16600;SDS011;34891;48.164;11.572;2023-02-12T02:37:11;32.63;;;11.88;;
16600;SDS011;34891;48.164;11.572;2023-02-12T02:42:15;32.97;;;13.00;;
16600;SDS011;34891;48.164;11.572;2023-02-12T02:47:22;10.05;;;4.30;;
16600;SDS011;34891;48.164;11.572;2023-02-12T02:52:28;31.90;;;12.43;;
16600;SDS011;34891;48.164;11.572;2023-02-12T02:57:34;25.38;;;10.15;;
16600;SDS011;34891;48.164;11.572;2023-02-12T03:02:39;27.17;;;10.38;;
16600;SDS011;34891;48.164;11.572;2023-02-12T03:07:43;29.35;;;11.13;;
16600;SDS011;34891;48.164;11.572;2023-02-12T03:12:49;28.80;;;11.63;;
16600;SDS011;34891;48.164;11.572;2023-02-12T03:17:53;31.27;;;12.88;;
16600;SDS011;34891;48.164;11.572;2023-02-12T03:22:59;33.45;;;12.57;;
16600;SDS011;34891;48.164;11.572;2023-02-12T03:28:05;33.47;;;12.27;;
16600;SDS011;34891;48.164;11.572;2023-02-12T03:38:14;36.20;;;11.90;;
16600;SDS011;34891;48.164;11.572;2023-02-12T03:43:21;37.92;;;12.63;;
16600;SDS011;34891;48.164;11.572;2023-02-12T03:48:26;28.40;;;10.20;;
16600;SDS011;34891;48.164;11.572;2023-02-12T03:53:31;27.23;;;12.38;;
16600;SDS011;34891;48.164;11.572;2023-02-12T03:58:34;34.45;;;12.13;;
16600;SDS011;34891;48.164;11.572;2023-02-12T04:08:42;34.60;;;12.57;;
16600;SDS011;34891;48.164;11.572;2023-02-12T04:13:46;30.70;;;12.73;;
16600;SDS011;34891;48.164;11.572;2023-02-12T04:18:54;33.80;;;11.15;;
16600;SDS011;34891;48.164;11.572;2023-02-12T04:24:01;33.22;;;12.48;;
16600;SDS011;34891;48.164;11.572;2023-02-12T04:29:10;34.72;;;13.00;;
16600;SDS011;34891;48.164;11.572;2023-02-12T04:34:16;32.75;;;12.75;;
16600;SDS011;34891;48.164;11.572;2023-02-12T04:39:22;42.05;;;14.27;;
16600;SDS011;34891;48.164;11.572;2023-02-12T04:44:27;32.80;;;12.07;;
16600;SDS011;34891;48.164;11.572;2023-02-12T04:49:30;35.67;;;12.63;;
16600;SDS011;34891;48.164;11.572;2023-02-12T04:54:34;34.05;;;13.57;;
16600;SDS011;34891;48.164;11.572;2023-02-12T04:59:37;34.27;;;12.27;;
16600;SDS011;34891;48.164;11.572;2023-02-12T05:04:40;34.28;;;13.02;;
16600;SDS011;34891;48.164;11.572;2023-02-12T05:09:44;33.15;;;12.98;;
16600;SDS011;34891;48.164;11.572;2023-02-12T05:14:47;34.88;;;12.32;;
16600;SDS011;34891;48.164;11.572;2023-02-12T05:19:49;24.73;;;9.73;;
16600;SDS011;34891;48.164;11.572;2023-02-12T05:24:54;34.67;;;12.32;;
16600;SDS011;34891;48.164;11.572;2023-02-12T05:29:56;34.38;;;12.65;;
16600;SDS011;34891;48.164;11.572;2023-02-12T05:34:58;38.47;;;13.38;;
16600;SDS011;34891;48.164;11.572;2023-02-12T05:40:03;35.47;;;13.30;;
16600;SDS011;34891;48.164;11.572;2023-02-12T05:45:06;39.20;;;14.43;;
16600;SDS011;34891;48.164;11.572;2023-02-12T05:50:09;42.83;;;13.23;;
16600;SDS011;34891;48.164;11.572;2023-02-12T05:55:13;35.67;;;14.13;;
16600;SDS011;34891;48.164;11.572;2023-02-12T06:00:16;35.58;;;13.52;;
16600;SDS011;34891;48.164;11.572;2023-02-12T06:05:19;42.58;;;15.30;;
16600;SDS011;34891;48.164;11.572;2023-02-12T06:10:23;48.45;;;15.23;;
16600;SDS011;34891;48.164;11.572;2023-02-12T06:15:25;40.30;;;14.82;;
16600;SDS011;34891;48.164;11.572;2023-02-12T06:20:28;45.00;;;15.77;;
16600;SDS011;34891;48.164;11.572;2023-02-12T06:25:32;45.53;;;14.18;;
16600;SDS011;34891;48.164;11.572;2023-02-12T06:30:35;44.70;;;14.90;;
16600;SDS011;34891;48.164;11.572;2023-02-12T06:35:37;45.70;;;15.68;;
16600;SDS011;34891;48.164;11.572;2023-02-12T06:40:41;42.80;;;16.80;;
16600;SDS011;34891;48.164;11.572;2023-02-12T06:45:44;50.67;;;16.60;;
16600;SDS011;34891;48.164;11.572;2023-02-12T06:50:46;48.08;;;16.40;;
16600;SDS011;34891;48.164;11.572;2023-02-12T06:55:50;42.65;;;15.88;;
16600;SDS011;34891;48.164;11.572;2023-02-12T07:00:53;46.95;;;16.90;;
16600;SDS011;34891;48.164;11.572;2023-02-12T07:05:55;47.08;;;14.38;;
16600;SDS011;34891;48.164;11.572;2023-02-12T07:10:59;51.15;;;15.07;;
16600;SDS011;34891;48.164;11.572;2023-02-12T07:16:02;56.25;;;16.23;;
16600;SDS011;34891;48.164;11.572;2023-02-12T07:21:06;45.63;;;16.40;;
16600;SDS011;34891;48.164;11.572;2023-02-12T07:26:11;46.15;;;15.15;;
16600;SDS011;34891;48.164;11.572;2023-02-12T07:31:15;42.22;;;14.38;;
16600;SDS011;34891;48.164;11.572;2023-02-12T07:36:18;45.88;;;15.32;;
16600;SDS011;34891;48.164;11.572;2023-02-12T07:41:22;45.58;;;12.55;;
16600;SDS011;34891;48.164;11.572;2023-02-12T07:46:26;44.35;;;14.35;;
16600;SDS011;34891;48.164;11.572;2023-02-12T07:51:31;42.05;;;13.27;;
16600;SDS011;34891;48.164;11.572;2023-02-12T07:56:35;49.13;;;14.98;;
16600;SDS011;34891;48.164;11.572;2023-02-12T08:01:39;48.50;;;15.50;;
16600;SDS011;34891;48.164;11.572;2023-02-12T08:06:42;47.03;;;14.10;;
16600;SDS011;34891;48.164;11.572;2023-02-12T08:11:46;40.60;;;13.70;;
16600;SDS011;34891;48.164;11.572;2023-02-12T08:16:49;38.03;;;11.88;;
16600;SDS011;34891;48.164;11.572;2023-02-12T08:21:53;41.63;;;13.07;;
16600;SDS011;34891;48.164;11.572;2023-02-12T08:26:57;40.73;;;13.87;;
16600;SDS011;34891;48.164;11.572;2023-02-12T08:32:00;31.25;;;11.07;;
16600;SDS011;34891;48.164;11.572;2023-02-12T08:37:04;42.67;;;12.55;;
16600;SDS011;34891;48.164;11.572;2023-02-12T08:42:08;38.13;;;12.45;;
16600;SDS011;34891;48.164;11.572;2023-02-12T08:52:13;38.13;;;11.30;;
16600;SDS011;34891;48.164;11.572;2023-02-12T08:57:17;36.45;;;13.57;;
16600;SDS011;34891;48.164;11.572;2023-02-12T09:02:19;39.08;;;11.98;;
16600;SDS011;34891;48.164;11.572;2023-02-12T09:07:22;33.97;;;12.45;;
16600;SDS011;34891;48.164;11.572;2023-02-12T09:12:26;42.08;;;13.23;;
16600;SDS011;34891;48.164;11.572;2023-02-12T09:17:29;38.35;;;12.27;;
16600;SDS011;34891;48.164;11.572;2023-02-12T09:22:31;31.00;;;11.63;;
16600;SDS011;34891;48.164;11.572;2023-02-12T09:27:35;31.52;;;12.00;;
16600;SDS011;34891;48.164;11.572;2023-02-12T09:32:38;32.20;;;12.65;;
16600;SDS011;34891;48.164;11.572;2023-02-12T09:37:40;35.15;;;11.20;;
16600;SDS011;34891;48.164;11.572;2023-02-12T09:48:12;28.13;;;9.13;;
16600;SDS011;34891;48.164;11.572;2023-02-12T09:53:18;24.77;;;8.43;;
16600;SDS011;34891;48.164;11.572;2023-02-12T09:58:23;19.73;;;7.78;;
16600;SDS011;34891;48.164;11.572;2023-02-12T10:03:32;15.23;;;4.70;;
16600;SDS011;34891;48.164;11.572;2023-02-12T10:08:38;8.75;;;3.50;;
16600;SDS011;34891;48.164;11.572;2023-02-12T10:13:45;8.93;;;3.22;;
16600;SDS011;34891;48.164;11.572;2023-02-12T10:18:57;11.20;;;3.85;;
16600;SDS011;34891;48.164;11.572;2023-02-12T10:24:10;8.95;;;3.10;;
16600;SDS011;34891;48.164;11.572;2023-02-12T10:29:17;8.80;;;3.33;;
16600;SDS011;34891;48.164;11.572;2023-02-12T10:34:24;7.28;;;2.83;;
16600;SDS011;34891;48.164;11.572;2023-02-12T10:39:28;7.05;;;2.53;;
16600;SDS011;34891;48.164;11.572;2023-02-12T10:44:31;5.00;;;2.65;;
16600;SDS011;34891;48.164;11.572;2023-02-12T10:49:35;8.35;;;3.15;;
16600;SDS011;34891;48.164;11.572;2023-02-12T10:54:39;13.05;;;3.50;;
16600;SDS011;34891;48.164;11.572;2023-02-12T10:59:42;8.02;;;3.55;;
16600;SDS011;34891;48.164;11.572;2023-02-12T11:04:47;4.80;;;2.17;;
16600;SDS011;34891;48.164;11.572;2023-02-12T11:09:50;5.65;;;1.95;;
16600;SDS011;34891;48.164;11.572;2023-02-12T11:14:54;2.57;;;1.30;;
16600;SDS011;34891;48.164;11.572;2023-02-12T11:20:06;1.20;;;1.00;;
16600;SDS011;34891;48.164;11.572;2023-02-12T11:25:13;2.17;;;1.45;;
16600;SDS011;34891;48.164;11.572;2023-02-12T11:30:17;2.60;;;1.30;;
16600;SDS011;34891;48.164;11.572;2023-02-12T11:35:22;2.50;;;1.30;;
16600;SDS011;34891;48.164;11.572;2023-02-12T11:40:26;1.73;;;1.25;;
16600;SDS011;34891;48.164;11.572;2023-02-12T11:45:30;3.72;;;1.90;;
16600;SDS011;34891;48.164;11.572;2023-02-12T11:50:35;2.15;;;1.80;;
16600;SDS011;34891;48.164;11.572;2023-02-12T11:55:39;3.20;;;1.67;;
16600;SDS011;34891;48.164;11.572;2023-02-12T12:00:43;1.45;;;1.23;;
16600;SDS011;34891;48.164;11.572;2023-02-12T12:05:49;2.22;;;1.55;;
16600;SDS011;34891;48.164;11.572;2023-02-12T12:10:54;2.80;;;2.10;;
16600;SDS011;34891;48.164;11.572;2023-02-12T12:15:59;2.97;;;2.17;;
16600;SDS011;34891;48.164;11.572;2023-02-12T12:21:27;3.63;;;2.08;;
16600;SDS011;34891;48.164;11.572;2023-02-12T12:26:30;4.20;;;2.38;;
16600;SDS011;34891;48.164;11.572;2023-02-12T12:31:36;3.17;;;2.15;;
16600;SDS011;34891;48.164;11.572;2023-02-12T12:37:03;4.57;;;2.70;;
16600;SDS011;34891;48.164;11.572;2023-02-12T12:42:13;4.30;;;2.90;;
16600;SDS011;34891;48.164;11.572;2023-02-12T12:47:21;5.32;;;2.92;;
16600;SDS011;34891;48.164;11.572;2023-02-12T12:52:34;6.45;;;3.38;;
16600;SDS011;34891;48.164;11.572;2023-02-12T12:57:42;5.93;;;3.00;;
16600;SDS011;34891;48.164;11.572;2023-02-12T13:03:00;11.18;;;4.43;;
16600;SDS011;34891;48.164;11.572;2023-02-12T13:08:09;6.25;;;3.53;;
16600;SDS011;34891;48.164;11.572;2023-02-12T13:13:18;8.35;;;3.25;;
16600;SDS011;34891;48.164;11.572;2023-02-12T13:18:28;7.22;;;3.58;;
16600;SDS011;34891;48.164;11.572;2023-02-12T13:23:36;5.57;;;2.97;;
16600;SDS011;34891;48.164;11.572;2023-02-12T13:28:41;6.40;;;3.10;;
16600;SDS011;34891;48.164;11.572;2023-02-12T13:33:46;5.75;;;3.10;;
16600;SDS011;34891;48.164;11.572;2023-02-12T13:38:53;5.57;;;3.25;;
16600;SDS011;34891;48.164;11.572;2023-02-12T13:44:00;12.68;;;6.10;;
16600;SDS011;34891;48.164;11.572;2023-02-12T13:49:09;8.80;;;3.90;;
16600;SDS011;34891;48.164;11.572;2023-02-12T13:54:25;8.25;;;3.60;;
16600;SDS011;34891;48.164;11.572;2023-02-12T13:59:41;8.93;;;4.07;;
16600;SDS011;34891;48.164;11.572;2023-02-12T14:04:44;8.70;;;4.73;;
16600;SDS011;34891;48.164;11.572;2023-02-12T14:14:52;11.45;;;4.38;;
16600;SDS011;34891;48.164;11.572;2023-02-12T14:19:56;8.80;;;3.75;;
16600;SDS011;34891;48.164;11.572;2023-02-12T14:30:29;12.43;;;5.53;;
16600;SDS011;34891;48.164;11.572;2023-02-12T14:35:32;11.13;;;4.90;;
16600;SDS011;34891;48.164;11.572;2023-02-12T14:40:37;8.32;;;3.45;;
16600;SDS011;34891;48.164;11.572;2023-02-12T14:45:44;7.88;;;3.70;;
16600;SDS011;34891;48.164;11.572;2023-02-12T14:50:46;11.52;;;4.57;;
16600;SDS011;34891;48.164;11.572;2023-02-12T14:55:52;10.13;;;4.10;;
16600;SDS011;34891;48.164;11.572;2023-02-12T15:00:58;11.18;;;5.30;;
16600;SDS011;34891;48.164;11.572;2023-02-12T15:06:03;10.90;;;4.05;;
16600;SDS011;34891;48.164;11.572;2023-02-12T15:11:11;10.13;;;3.53;;
16600;SDS011;34891;48.164;11.572;2023-02-12T15:16:19;9.02;;;3.38;;
16600;SDS011;34891;48.164;11.572;2023-02-12T15:21:24;9.73;;;3.55;;
16600;SDS011;34891;48.164;11.572;2023-02-12T15:26:28;12.50;;;3.80;;
16600;SDS011;34891;48.164;11.572;2023-02-12T15:31:33;17.38;;;5.80;;
16600;SDS011;34891;48.164;11.572;2023-02-12T15:36:36;13.73;;;5.20;;
16600;SDS011;34891;48.164;11.572;2023-02-12T15:41:39;13.27;;;5.47;;
16600;SDS011;34891;48.164;11.572;2023-02-12T15:46:52;16.27;;;6.55;;
16600;SDS011;34891;48.164;11.572;2023-02-12T15:51:55;18.23;;;5.78;;
16600;SDS011;34891;48.164;11.572;2023-02-12T15:56:59;19.77;;;6.45;;
16600;SDS011;34891;48.164;11.572;2023-02-12T16:02:03;18.30;;;7.18;;
16600;SDS011;34891;48.164;11.572;2023-02-12T16:07:05;16.35;;;5.60;;
16600;SDS011;34891;48.164;11.572;2023-02-12T16:12:11;22.63;;;7.63;;
16600;SDS011;34891;48.164;11.572;2023-02-12T16:17:25;16.83;;;4.13;;
16600;SDS011;34891;48.164;11.572;2023-02-12T16:22:30;20.13;;;6.72;;
16600;SDS011;34891;48.164;11.572;2023-02-12T16:27:33;20.23;;;6.60;;
16600;SDS011;34891;48.164;11.572;2023-02-12T16:32:38;23.10;;;7.63;;
16600;SDS011;34891;48.164;11.572;2023-02-12T16:37:48;25.35;;;8.63;;
16600;SDS011;34891;48.164;11.572;2023-02-12T16:43:02;27.60;;;8.38;;
16600;SDS011;34891;48.164;11.572;2023-02-12T16:48:13;24.27;;;6.43;;
16600;SDS011;34891;48.164;11.572;2023-02-12T16:53:31;20.63;;;6.43;;
16600;SDS011;34891;48.164;11.572;2023-02-12T16:58:34;27.48;;;7.70;;
16600;SDS011;34891;48.164;11.572;2023-02-12T17:03:40;21.83;;;6.97;;
16600;SDS011;34891;48.164;11.572;2023-02-12T17:08:43;23.58;;;8.70;;
16600;SDS011;34891;48.164;11.572;2023-02-12T17:13:47;18.85;;;6.63;;
16600;SDS011;34891;48.164;11.572;2023-02-12T17:18:51;26.47;;;8.53;;
16600;SDS011;34891;48.164;11.572;2023-02-12T17:23:53;28.25;;;8.43;;
16600;SDS011;34891;48.164;11.572;2023-02-12T17:28:56;20.33;;;6.53;;
16600;SDS011;34891;48.164;11.572;2023-02-12T17:34:06;23.48;;;7.38;;
16600;SDS011;34891;48.164;11.572;2023-02-12T17:39:10;23.73;;;6.88;;
16600;SDS011;34891;48.164;11.572;2023-02-12T17:44:13;30.88;;;8.20;;
16600;SDS011;34891;48.164;11.572;2023-02-12T17:49:17;26.40;;;7.78;;
16600;SDS011;34891;48.164;11.572;2023-02-12T17:54:20;21.33;;;8.23;;
16600;SDS011;34891;48.164;11.572;2023-02-12T17:59:23;24.67;;;7.70;;
16600;SDS011;34891;48.164;11.572;2023-02-12T18:04:26;27.60;;;8.15;;
16600;SDS011;34891;48.164;11.572;2023-02-12T18:09:29;28.75;;;8.65;;
16600;SDS011;34891;48.164;11.572;2023-02-12T18:14:32;28.77;;;8.15;;
16600;SDS011;34891;48.164;11.572;2023-02-12T18:19:36;29.58;;;6.57;;
16600;SDS011;34891;48.164;11.572;2023-02-12T18:24:39;27.10;;;7.78;;
16600;SDS011;34891;48.164;11.572;2023-02-12T18:29:41;24.73;;;7.13;;
16600;SDS011;34891;48.164;11.572;2023-02-12T18:34:45;26.83;;;7.47;;
16600;SDS011;34891;48.164;11.572;2023-02-12T18:39:48;21.40;;;7.13;;
16600;SDS011;34891;48.164;11.572;2023-02-12T18:44:50;25.20;;;8.38;;
16600;SDS011;34891;48.164;11.572;2023-02-12T18:49:54;40.33;;;11.83;;
16600;SDS011;34891;48.164;11.572;2023-02-12T18:54:58;30.03;;;9.50;;
16600;SDS011;34891;48.164;11.572;2023-02-12T19:00:00;29.17;;;8.10;;
16600;SDS011;34891;48.164;11.572;2023-02-12T19:05:06;28.63;;;9.32;;
16600;SDS011;34891;48.164;11.572;2023-02-12T19:10:11;28.87;;;9.03;;
16600;SDS011;34891;48.164;11.572;2023-02-12T19:15:14;22.57;;;7.77;;
16600;SDS011;34891;48.164;11.572;2023-02-12T19:20:18;26.73;;;8.30;;
16600;SDS011;34891;48.164;11.572;2023-02-12T19:30:23;23.20;;;8.10;;
16600;SDS011;34891;48.164;11.572;2023-02-12T19:35:27;27.73;;;9.23;;
16600;SDS011;34891;48.164;11.572;2023-02-12T19:40:30;22.85;;;6.57;;
16600;SDS011;34891;48.164;11.572;2023-02-12T19:45:32;17.10;;;5.80;;
16600;SDS011;34891;48.164;11.572;2023-02-12T19:50:36;24.40;;;7.57;;
16600;SDS011;34891;48.164;11.572;2023-02-12T19:55:39;19.33;;;6.28;;
16600;SDS011;34891;48.164;11.572;2023-02-12T20:00:41;22.93;;;7.30;;
16600;SDS011;34891;48.164;11.572;2023-02-12T20:05:45;26.87;;;8.93;;
16600;SDS011;34891;48.164;11.572;2023-02-12T20:10:52;29.23;;;8.57;;
16600;SDS011;34891;48.164;11.572;2023-02-12T20:15:55;25.63;;;7.33;;
16600;SDS011;34891;48.164;11.572;2023-02-12T20:20:59;20.23;;;7.03;;
16600;SDS011;34891;48.164;11.572;2023-02-12T20:26:02;16.45;;;5.80;;
16600;SDS011;34891;48.164;11.572;2023-02-12T20:31:08;19.02;;;6.15;;
16600;SDS011;34891;48.164;11.572;2023-02-12T20:36:13;25.40;;;6.87;;
16600;SDS011;34891;48.164;11.572;2023-02-12T20:46:19;19.50;;;6.33;;
16600;SDS011;34891;48.164;11.572;2023-02-12T20:51:24;24.27;;;6.50;;
16600;SDS011;34891;48.164;11.572;2023-02-12T20:56:28;25.17;;;7.03;;
16600;SDS011;34891;48.164;11.572;2023-02-12T21:01:32;11.52;;;4.70;;
16600;SDS011;34891;48.164;11.572;2023-02-12T21:06:36;13.80;;;5.07;;
16600;SDS011;34891;48.164;11.572;2023-02-12T21:11:41;21.80;;;6.17;;
16600;SDS011;34891;48.164;11.572;2023-02-12T21:16:47;24.40;;;6.60;;
16600;SDS011;34891;48.164;11.572;2023-02-12T21:21:51;23.83;;;6.40;;
16600;SDS011;34891;48.164;11.572;2023-02-12T21:26:54;18.20;;;6.87;;
16600;SDS011;34891;48.164;11.572;2023-02-12T21:31:57;16.52;;;5.35;;
16600;SDS011;34891;48.164;11.572;2023-02-12T21:37:02;11.02;;;3.97;;
16600;SDS011;34891;48.164;11.572;2023-02-12T21:42:05;16.67;;;5.55;;
16600;SDS011;34891;48.164;11.572;2023-02-12T21:47:08;16.70;;;6.07;;
16600;SDS011;34891;48.164;11.572;2023-02-12T21:52:12;17.83;;;5.63;;
16600;SDS011;34891;48.164;11.572;2023-02-12T21:57:15;15.07;;;4.28;;
16600;SDS011;34891;48.164;11.572;2023-02-12T22:02:20;24.17;;;6.63;;
16600;SDS011;34891;48.164;11.572;2023-02-12T22:07:24;21.10;;;7.13;;
16600;SDS011;34891;48.164;11.572;2023-02-12T22:12:26;21.13;;;6.40;;
16600;SDS011;34891;48.164;11.572;2023-02-12T22:17:32;17.80;;;6.00;;
16600;SDS011;34891;48.164;11.572;2023-02-12T22:22:36;14.13;;;4.50;;
16600;SDS011;34891;48.164;11.572;2023-02-12T22:27:39;24.63;;;6.72;;
16600;SDS011;34891;48.164;11.572;2023-02-12T22:32:41;15.90;;;5.30;;
16600;SDS011;34891;48.164;11.572;2023-02-12T22:37:45;13.83;;;4.50;;
16600;SDS011;34891;48.164;11.572;2023-02-12T22:42:48;15.23;;;4.55;;
16600;SDS011;34891;48.164;11.572;2023-02-12T22:47:50;8.97;;;2.63;;
16600;SDS011;34891;48.164;11.572;2023-02-12T22:52:54;15.50;;;4.90;;
16600;SDS011;34891;48.164;11.572;2023-02-12T22:57:57;15.15;;;5.18;;
16600;SDS011;34891;48.164;11.572;2023-02-12T23:02:59;15.77;;;4.47;;
16600;SDS011;34891;48.164;11.572;2023-02-12T23:08:04;15.87;;;4.53;;
16600;SDS011;34891;48.164;11.572;2023-02-12T23:13:07;10.43;;;3.30;;
16600;SDS011;34891;48.164;11.572;2023-02-12T23:18:11;9.43;;;3.55;;
16600;SDS011;34891;48.164;11.572;2023-02-12T23:23:15;18.17;;;5.73;;
16600;SDS011;34891;48.164;11.572;2023-02-12T23:33:20;18.93;;;5.90;;
16600;SDS011;34891;48.164;11.572;2023-02-12T23:38:24;13.17;;;4.43;;
16600;SDS011;34891;48.164;11.572;2023-02-12T23:43:27;16.23;;;5.00;;
16600;SDS011;34891;48.164;11.572;2023-02-12T23:48:30;16.47;;;4.70;;
16600;SDS011;34891;48.164;11.572;2023-02-12T23:53:34;10.80;;;3.80;;
16600;SDS011;34891;48.164;11.572;2023-02-12T23:58:37;7.87;;;3.37;;
